createdAt,value
2019-03-11T00:00:52.739Z,40.70
2019-03-11T00:03:22.879Z,41.10
2019-03-11T00:05:53.454Z,40.80
2019-03-11T00:08:23.403Z,40.60
2019-03-11T00:10:53.380Z,40.50
2019-03-11T00:13:23.904Z,40.00
2019-03-11T00:16:03.274Z,40.20
2019-03-11T00:18:33.719Z,41.10
2019-03-11T00:21:03.926Z,40.50
2019-03-11T00:23:34.883Z,41.10
2019-03-11T00:26:05.601Z,42.00
2019-03-11T00:28:35.616Z,41.40
2019-03-11T00:31:05.780Z,41.20
2019-03-11T00:33:35.772Z,41.70
2019-03-11T00:36:05.775Z,42.10
2019-03-11T00:38:35.874Z,41.50
2019-03-11T00:41:05.844Z,41.80
2019-03-11T00:43:35.949Z,41.70
2019-03-11T00:46:05.895Z,42.10
2019-03-11T00:48:35.902Z,42.30
2019-03-11T00:51:05.816Z,43.20
2019-03-11T00:53:35.690Z,42.50
2019-03-11T00:56:05.608Z,42.40
2019-03-11T00:58:35.763Z,42.20
2019-03-11T01:01:05.838Z,42.80
2019-03-11T01:03:35.992Z,42.10
2019-03-11T01:06:06.264Z,42.10
2019-03-11T01:08:36.302Z,42.30
2019-03-11T01:11:06.571Z,42.20
2019-03-11T01:13:37.796Z,42.20
2019-03-11T01:16:07.698Z,41.70
2019-03-11T01:18:37.653Z,41.60
2019-03-11T01:21:07.529Z,41.60
2019-03-11T01:23:37.463Z,41.70
2019-03-11T01:26:07.497Z,42.20
2019-03-11T01:28:37.586Z,42.20
2019-03-11T01:31:07.488Z,42.20
2019-03-11T01:33:37.468Z,42.00
2019-03-11T01:36:07.426Z,42.10
2019-03-11T01:38:37.324Z,42.10
2019-03-11T01:41:07.137Z,42.00
2019-03-11T01:43:37.221Z,41.90
2019-03-11T01:46:08.681Z,42.40
2019-03-11T01:48:38.582Z,42.60
2019-03-11T01:51:08.571Z,42.00
2019-03-11T01:53:38.444Z,42.30
2019-03-11T01:56:08.377Z,42.20
2019-03-11T03:50:32.221Z,45.10
2019-03-11T03:55:59.242Z,45.10
2019-03-11T04:01:48.406Z,45.20
2019-03-11T04:13:49.479Z,52.00
2019-03-11T04:16:22.600Z,53.20
2019-03-11T05:07:25.217Z,59.50
2019-03-11T06:41:04.641Z,51.70
2019-03-11T06:46:31.447Z,51.70
2019-03-11T06:49:03.616Z,51.80
2019-03-11T06:51:33.771Z,51.70
2019-03-11T06:54:04.167Z,51.60
2019-03-11T07:02:43.603Z,51.10
2019-03-11T07:05:20.572Z,50.80
2019-03-11T07:07:48.428Z,50.00
2019-03-11T07:13:15.421Z,50.20
2019-03-11T07:15:48.277Z,49.20
2019-03-11T07:18:37.888Z,48.50
2019-03-11T07:21:08.157Z,47.70
2019-03-11T07:23:59.575Z,47.50
2019-03-11T07:27:17.653Z,47.10
2019-03-11T07:29:45.599Z,47.70
2019-03-11T07:32:35.944Z,46.40
2019-03-11T07:35:08.791Z,46.40
2019-03-11T07:37:39.224Z,46.80
2019-03-11T07:40:09.651Z,46.20
2019-03-11T07:42:40.932Z,45.50
2019-03-11T07:48:06.918Z,46.70
2019-03-11T07:50:37.051Z,45.80
2019-03-11T07:53:31.635Z,46.00
2019-03-11T07:56:19.410Z,45.70
2019-03-11T07:58:50.136Z,45.70
2019-03-11T08:01:20.084Z,45.50
2019-03-11T08:03:50.775Z,45.90
2019-03-11T08:06:43.422Z,45.70
2019-03-11T08:09:37.034Z,45.40
2019-03-11T08:11:59.030Z,46.20
2019-03-11T08:14:32.205Z,47.10
2019-03-11T08:17:26.242Z,48.50
2019-03-11T08:19:56.166Z,57.80
2019-03-11T08:22:28.087Z,64.30
2019-03-11T08:24:58.202Z,68.20
2019-03-11T08:27:28.488Z,68.90
2019-03-11T08:30:18.004Z,72.70
2019-03-11T08:32:48.063Z,74.00
2019-03-11T08:35:18.019Z,75.90
2019-03-11T08:37:47.965Z,78.70
2019-03-11T08:40:17.969Z,79.40
2019-03-11T08:42:47.903Z,78.90
2019-03-11T08:45:18.933Z,79.20
2019-03-11T08:47:48.887Z,79.70
2019-03-11T08:50:18.981Z,77.70
2019-03-11T08:52:48.946Z,74.80
2019-03-11T08:55:19.740Z,69.70
2019-03-11T08:57:49.733Z,62.10
2019-03-11T09:00:20.134Z,65.30
2019-03-11T09:02:50.189Z,66.90
2019-03-11T09:05:21.168Z,66.70
2019-03-11T09:07:51.122Z,62.80
2019-03-11T09:10:40.410Z,58.60
2019-03-11T09:13:10.314Z,58.40
2019-03-11T09:15:40.179Z,58.40
2019-03-11T09:18:10.122Z,55.70
2019-03-11T09:20:40.361Z,56.80
2019-03-11T09:23:10.313Z,53.80
2019-03-11T09:25:40.167Z,53.00
2019-03-11T09:28:10.489Z,51.80
2019-03-11T09:30:40.337Z,49.10
2019-03-11T09:33:10.201Z,49.90
2019-03-11T09:35:59.658Z,50.00
2019-03-11T09:38:29.677Z,47.50
2019-03-11T09:40:59.640Z,49.20
2019-03-11T09:43:29.487Z,47.10
2019-03-11T09:46:18.921Z,48.00
2019-03-11T09:48:48.794Z,47.80
2019-03-11T09:51:18.804Z,47.00
2019-03-11T09:54:08.499Z,47.00
2019-03-11T09:56:58.069Z,46.80
2019-03-11T09:59:28.291Z,47.30
2019-03-11T10:01:58.320Z,46.40
2019-03-11T10:04:28.495Z,46.00
2019-03-11T10:09:54.808Z,45.90
2019-03-11T10:12:24.859Z,45.70
2019-03-11T10:14:54.793Z,45.70
2019-03-11T10:17:24.855Z,45.40
2019-03-11T10:19:54.908Z,45.60
2019-03-11T10:22:44.625Z,45.00
2019-03-11T10:25:15.270Z,43.80
2019-03-11T10:27:45.484Z,41.90
2019-03-11T10:30:16.191Z,41.90
2019-03-11T10:32:48.706Z,41.30
2019-03-11T10:35:31.456Z,39.60
2019-03-11T10:38:28.517Z,40.20
2019-03-11T10:40:58.581Z,39.70
2019-03-11T10:43:28.510Z,41.00
2019-03-11T10:45:58.718Z,39.20
2019-03-11T10:48:48.078Z,38.80
2019-03-11T10:51:18.196Z,38.50
2019-03-11T10:53:48.563Z,38.70
2019-03-11T10:56:18.693Z,39.00
2019-03-11T10:58:48.639Z,39.20
2019-03-11T11:01:18.684Z,39.60
2019-03-11T11:04:08.197Z,40.00
2019-03-11T11:06:38.341Z,40.90
2019-03-11T11:09:20.680Z,41.50
2019-03-11T11:12:10.142Z,40.70
2019-03-11T11:14:40.278Z,39.40
2019-03-11T11:17:10.345Z,40.50
2019-03-11T11:19:40.323Z,40.50
2019-03-11T11:22:10.179Z,39.30
2019-03-11T11:24:40.123Z,39.70
2019-03-11T11:27:10.142Z,40.90
2019-03-11T11:29:41.135Z,43.20
2019-03-11T11:32:31.158Z,46.80
2019-03-11T11:35:21.525Z,48.40
2019-03-11T11:44:08.310Z,43.20
2019-03-11T11:46:40.673Z,43.50
2019-03-11T11:49:10.721Z,40.90
2019-03-11T11:51:40.890Z,39.60
2019-03-11T11:54:30.799Z,40.30
2019-03-11T11:57:00.975Z,39.30
2019-03-11T11:59:54.336Z,39.10
2019-03-11T12:03:02.797Z,39.80
2019-03-11T12:05:52.318Z,39.60
2019-03-11T12:08:22.253Z,40.30
2019-03-11T12:11:11.693Z,39.40
2019-03-11T12:14:01.220Z,39.90
2019-03-11T12:16:51.138Z,40.60
2019-03-11T12:19:21.304Z,41.90
2019-03-11T12:25:25.870Z,42.00
2019-03-11T12:28:15.699Z,42.50
2019-03-11T12:30:45.837Z,42.90
2019-03-11T12:33:16.049Z,43.10
2019-03-11T12:35:48.472Z,42.50
2019-03-11T12:38:18.619Z,41.70
2019-03-11T12:41:08.065Z,40.90
2019-03-11T12:43:38.315Z,41.20
2019-03-11T12:46:09.368Z,40.30
2019-03-11T12:48:39.421Z,39.40
2019-03-11T12:51:29.132Z,39.40
2019-03-11T12:53:59.391Z,38.20
2019-03-11T12:56:49.142Z,38.10
2019-03-11T12:59:40.667Z,37.50
2019-03-11T13:02:30.412Z,36.60
2019-03-11T13:08:00.447Z,37.80
2019-03-11T13:10:30.792Z,38.90
2019-03-11T13:13:20.555Z,39.70
2019-03-11T13:18:42.715Z,41.60
2019-03-11T13:21:34.277Z,42.70
2019-03-11T13:24:23.728Z,41.20
2019-03-11T13:27:13.602Z,39.90
2019-03-11T13:30:03.594Z,39.30
2019-03-11T13:32:54.219Z,38.40
2019-03-11T13:35:43.780Z,35.50
2019-03-11T13:38:34.490Z,36.00
2019-03-11T13:41:42.638Z,34.70
2019-03-11T13:44:32.644Z,36.60
2019-03-11T13:47:22.022Z,36.40
2019-03-11T13:49:52.015Z,36.20
2019-03-11T13:52:41.364Z,37.20
2019-03-11T13:55:30.817Z,37.60
2019-03-11T13:58:20.568Z,37.20
2019-03-11T14:00:56.746Z,37.40
2019-03-11T14:03:40.634Z,37.60
2019-03-11T14:06:30.156Z,37.80
2019-03-11T14:09:12.228Z,37.30
2019-03-11T14:14:40.696Z,38.00
2019-03-11T14:23:10.863Z,38.90
2019-03-11T14:26:20.198Z,38.00
2019-03-11T14:28:50.484Z,38.40
2019-03-11T14:31:40.752Z,38.20
2019-03-11T14:34:30.671Z,39.10
2019-03-11T14:37:03.733Z,40.20
2019-03-11T14:39:36.455Z,39.80
2019-03-11T14:42:06.815Z,39.90
2019-03-11T14:47:26.784Z,41.40
2019-03-11T14:49:57.044Z,41.80
2019-03-11T14:52:32.097Z,41.10
2019-03-11T14:55:02.442Z,41.30
2019-03-11T14:57:52.430Z,41.10
2019-03-11T15:03:17.885Z,42.70
2019-03-11T15:06:07.399Z,43.40
2019-03-11T15:08:49.934Z,43.20
2019-03-11T15:11:39.489Z,43.60
2019-03-11T15:14:29.027Z,42.50
2019-03-11T15:16:59.056Z,43.40
2019-03-11T15:19:28.934Z,42.50
2019-03-11T15:21:58.965Z,41.60
2019-03-11T15:24:29.874Z,42.40
2019-03-11T15:26:59.947Z,42.70
2019-03-11T15:29:29.965Z,42.80
2019-03-11T15:32:20.526Z,42.10
2019-03-11T15:35:10.136Z,40.80
2019-03-11T15:37:59.458Z,41.30
2019-03-11T15:40:48.879Z,39.20
2019-03-11T15:43:38.355Z,37.80
2019-03-11T15:46:38.674Z,37.50
2019-03-11T15:49:37.075Z,37.10
2019-03-11T15:55:20.856Z,37.60
2019-03-11T15:57:51.918Z,37.60
2019-03-11T16:00:41.584Z,38.30
2019-03-11T16:03:36.274Z,40.10
2019-03-11T16:21:44.020Z,70.30
2019-03-11T16:24:17.632Z,69.20
2019-03-11T16:26:49.188Z,68.80
2019-03-11T16:29:21.187Z,68.90
2019-03-11T16:31:52.006Z,69.00
2019-03-11T16:37:17.815Z,69.70
2019-03-11T16:39:49.666Z,68.50
2019-03-11T16:42:31.032Z,68.20
2019-03-11T16:45:01.871Z,69.20
2019-03-11T16:47:33.561Z,68.10
2019-03-11T16:50:05.121Z,66.40
2019-03-11T16:52:40.425Z,66.40
2019-03-11T16:55:16.692Z,67.20
2019-03-11T16:58:20.861Z,66.70
2019-03-11T17:00:53.196Z,65.80
2019-03-11T17:03:25.834Z,65.70
2019-03-11T17:05:57.691Z,66.70
2019-03-11T17:08:28.269Z,63.70
2019-03-11T17:11:19.043Z,62.00
2019-03-11T17:13:53.838Z,62.20
2019-03-11T17:16:43.775Z,55.80
2019-03-11T17:19:13.978Z,56.00
2019-03-11T17:22:03.563Z,54.20
2019-03-11T17:24:33.617Z,56.60
2019-03-11T17:27:03.715Z,54.40
2019-03-11T17:29:53.441Z,51.50
2019-03-11T17:32:43.645Z,50.30
2019-03-11T17:35:33.511Z,50.90
2019-03-11T17:38:23.139Z,49.50
2019-03-11T17:40:53.274Z,49.10
2019-03-11T17:43:23.667Z,48.80
2019-03-11T17:46:14.224Z,48.90
2019-03-11T17:52:18.161Z,48.20
2019-03-11T17:54:48.623Z,48.50
2019-03-11T17:57:19.703Z,48.90
2019-03-11T18:00:08.735Z,48.60
2019-03-11T18:02:58.983Z,48.90
2019-03-11T18:05:48.487Z,48.40
2019-03-11T18:08:38.483Z,49.20
2019-03-11T18:11:29.312Z,48.00
2019-03-11T18:16:56.963Z,47.80
2019-03-11T18:19:26.961Z,47.40
2019-03-11T18:21:57.057Z,49.40
2019-03-11T18:24:28.532Z,48.80
2019-03-11T18:26:58.790Z,48.60
2019-03-11T18:29:29.223Z,48.00
2019-03-11T18:32:19.494Z,48.00
2019-03-11T18:35:10.802Z,48.10
2019-03-11T18:49:57.242Z,48.60
2019-03-11T18:52:51.973Z,48.90
2019-03-11T18:55:45.675Z,47.80
2019-03-11T18:58:35.258Z,48.10
2019-03-11T19:04:59.619Z,47.30
2019-03-11T19:20:59.995Z,47.00
2019-03-11T19:23:50.034Z,47.20
2019-03-11T19:26:20.441Z,46.80
2019-03-11T19:29:32.299Z,46.80
2019-03-11T19:58:27.887Z,44.60
2019-03-11T20:00:59.260Z,43.50
2019-03-11T20:09:21.982Z,44.10
2019-03-11T20:11:54.276Z,43.40
2019-03-11T20:14:28.397Z,44.00
2019-03-11T20:17:02.190Z,44.60
2019-03-11T20:20:01.658Z,44.90
2019-03-11T20:22:19.349Z,44.90
2019-03-11T20:24:50.801Z,44.60
2019-03-11T20:27:23.584Z,44.80
2019-03-11T20:32:55.900Z,44.20
2019-03-11T20:40:46.533Z,44.00
2019-03-11T20:49:12.353Z,44.80
2019-03-11T21:10:50.851Z,45.00
2019-03-11T21:16:19.823Z,45.10
2019-03-11T21:21:46.410Z,45.20
2019-03-11T21:32:39.893Z,44.90
2019-03-11T21:35:30.218Z,45.30
2019-03-11T22:00:04.440Z,46.20
2019-03-11T22:02:56.473Z,46.30
2019-03-11T22:11:20.949Z,46.80
2019-03-11T22:13:51.446Z,46.90
2019-03-11T22:16:21.525Z,47.50
2019-03-11T22:18:54.685Z,47.20
2019-03-11T22:21:24.905Z,47.50
2019-03-11T22:24:07.185Z,47.20
2019-03-11T22:26:45.728Z,47.50
2019-03-11T22:32:18.018Z,47.70
2019-03-11T22:34:48.158Z,48.10
2019-03-11T22:37:37.726Z,48.30
2019-03-11T22:40:08.627Z,48.00
2019-03-11T22:42:38.753Z,47.90
2019-03-11T22:45:10.129Z,48.00
2019-03-11T22:47:40.111Z,48.30
2019-03-11T22:50:10.247Z,48.40
2019-03-11T22:52:40.180Z,48.40
2019-03-11T22:55:10.621Z,48.70
2019-03-11T22:57:40.458Z,48.70
2019-03-11T23:00:53.359Z,49.20
2019-03-11T23:03:30.067Z,49.30
2019-03-11T23:06:00.280Z,49.60
2019-03-11T23:08:30.415Z,49.40
2019-03-11T23:11:00.508Z,49.90
2019-03-11T23:13:30.587Z,49.80
2019-03-11T23:16:20.256Z,50.00
2019-03-11T23:19:10.171Z,50.30
2019-03-11T23:21:40.163Z,50.40
2019-03-11T23:24:29.490Z,51.00
2019-03-11T23:26:59.571Z,50.80
2019-03-11T23:29:29.464Z,50.50
2019-03-11T23:32:18.841Z,50.10
2019-03-11T23:34:50.015Z,50.70
2019-03-11T23:37:39.957Z,51.00
2019-03-11T23:40:10.677Z,50.30
2019-03-11T23:42:40.695Z,50.70
2019-03-11T23:45:10.820Z,50.90
2019-03-11T23:48:00.599Z,50.50
2019-03-11T23:50:30.628Z,50.90
2019-03-11T23:53:20.063Z,50.50
2019-03-11T23:56:09.502Z,50.40
2019-03-11T23:58:59.053Z,50.30
